Weather observations for the past three days for
Jerome County Airport
| Date | Time (mdt) | Wind (kph) | Vis. (km) | Weather | Sky Cond. | Temperature (ºC) | Relative Humidity | Wind Chill (°C) | Heat Index (°C) | Pressure | Precipitation (cm) | ||||||
|---|---|---|---|---|---|---|---|---|---|---|---|---|---|---|---|---|---|
| Air | Dwpt | 6 hour | altimeter (cm) | sea level (mb) | 1 hr | 3 hr | 6 hr | ||||||||||
| Max. | Min. | ||||||||||||||||
| 05 | 18:53 | W 26 G 56 | 16.09 | Overcast | BKN100 OVC120 | 22.2 | 0.6 | 24% | 75.54 | 1004.3 | |||||||
| 05 | 17:53 | SW 20 | 16.09 | Partly Cloudy | SCT090 | 21.1 | 1.1 | 22.2 | 18.3 | 27% | 75.59 | 1004.8 | |||||
| 05 | 16:53 | SW 15 G 33 | 16.09 | A Few Clouds | FEW100 | 21.1 | -0.6 | 23% | 75.64 | 1005.7 | |||||||
| 05 | 15:53 | Calm | 16.09 | Fair | CLR | 20.6 | -2.2 | 22% | 75.72 | 1006.5 | |||||||
| 05 | 14:53 | W 7 | 16.09 | Fair | CLR | 20 | -2.2 | 22% | 75.74 | 1006.9 | |||||||
| 05 | 13:53 | S 6 G 30 | 16.09 | Fair | CLR | 20 | -1.7 | 23% | 75.77 | 1007.2 | |||||||
| 05 | 12:53 | SE 30 G 44 | 16.09 | Fair | CLR | 18.9 | -1.7 | 25% | 75.79 | 1007.6 | |||||||
| 05 | 11:53 | E 30 G 52 | 16.09 | Fair | CLR | 18.3 | -2.8 | 18.9 | 11.1 | 24% | 75.82 | 1007.8 | |||||
| 05 | 10:53 | E 39 G 57 | 16.09 | Fair and Breezy | CLR | 17.2 | -1.1 | 29% | 75.79 | 1007.5 | |||||||
| 05 | 09:53 | E 46 G 61 | 14.48 | A Few Clouds and Windy | FEW090 FEW120 | 15 | -1.7 | 32% | 75.79 | 1007.4 | |||||||
| 05 | 08:53 | E 37 G 61 | 16.09 | Overcast and Breezy | OVC100 | 12.8 | -1.1 | 38% | 75.79 | 1007.7 | |||||||
| 05 | 07:53 | E 39 G 59 | 16.09 | Overcast and Breezy | OVC100 | 11.7 | -1.1 | 41% | 75.74 | 1007.0 | |||||||
| 05 | 06:53 | E 35 G 50 | 16.09 | Partly Cloudy and Breezy | SCT120 | 11.1 | -1.7 | 41% | 75.69 | 1006.2 | |||||||
| 05 | 05:53 | E 28 G 43 | 16.09 | Overcast | FEW065 BKN075 OVC110 | 12.2 | -1.1 | 16.1 | 12.2 | 40% | 75.67 | 1005.5 | |||||
| 05 | 04:53 | E 37 G 56 | 16.09 | Overcast and Breezy | BKN095 OVC110 | 12.8 | -0.6 | 40% | 75.59 | 1004.5 | |||||||
| 05 | 03:53 | E 35 G 50 | 16.09 | Partly Cloudy and Breezy | SCT110 | 13.3 | 0 | 40% | 75.57 | 1004.1 | |||||||
| 05 | 02:53 | E 24 | 16.09 | Fair | CLR | 13.9 | 0 | 39% | 75.57 | 1004.0 | |||||||
| 05 | 01:53 | E 20 | 16.09 | Fair | CLR | 15 | 0 | 36% | 75.54 | 1003.7 | |||||||
| 05 | 00:53 | SE 20 | 16.09 | Mostly Cloudy | BKN120 | 15.6 | -1.1 | 32% | 75.49 | 1003.1 | |||||||
| 04 | 23:53 | SE 13 | 16.09 | Partly Cloudy | SCT120 | 16.1 | -1.7 | 25 | 15.6 | 30% | 75.44 | 1002.6 | |||||
| 04 | 22:53 | S 9 | 16.09 | Fair | CLR | 16.7 | -2.8 | 26% | 75.41 | 1002.4 | |||||||
| 04 | 21:53 | W 6 | 16.09 | Fair | CLR | 19.4 | -3.9 | 20% | 75.41 | 1002.5 | |||||||
| 04 | 20:53 | W 7 | 16.09 | Fair | CLR | 20.6 | -2.8 | 21% | 75.41 | 1002.4 | |||||||
| 04 | 19:53 | W 17 | 16.09 | Fair | CLR | 22.8 | -5 | 15% | 75.39 | 1001.9 | |||||||
| 04 | 18:53 | W 20 | 16.09 | Fair | CLR | 24.4 | -3.3 | 16% | 24 | 75.39 | 1001.9 | ||||||
| 04 | 17:53 | W 19 G 31 | 16.09 | Fair | CLR | 25 | -3.3 | 26.1 | 18.9 | 15% | 25 | 75.39 | 1001.9 | ||||
| 04 | 16:53 | W 9 G 31 | 16.09 | Fair | CLR | 25 | -2.2 | 16% | 25 | 75.41 | 1002.3 | ||||||
| 04 | 15:53 | W 13 | 16.09 | Fair | CLR | 25 | -0.6 | 18% | 25 | 75.49 | 1003.1 | ||||||
| 04 | 14:53 | W 13 | 16.09 | Fair | CLR | 23.9 | 1.7 | 23% | 25 | 75.54 | 1004.0 | ||||||
| 04 | 13:53 | NW 7 | 16.09 | Fair | CLR | 22.2 | 3.9 | 30% | 75.62 | 1004.8 | |||||||
| 04 | 12:53 | SW 15 | 16.09 | Fair | CLR | 21.1 | 2.8 | 30% | 75.64 | 1005.7 | |||||||
| 04 | 11:53 | Vrbl 11 | 16.09 | Fair | CLR | 18.9 | 1.7 | 19.4 | 9.4 | 32% | 75.69 | 1006.3 | |||||
| 04 | 10:53 | SW 9 | 16.09 | Fair | CLR | 17.2 | 2.2 | 37% | 75.72 | 1006.9 | |||||||
| 04 | 09:53 | SW 11 | 16.09 | Fair | CLR | 15 | 2.2 | 42% | 75.74 | 1007.1 | |||||||
| 04 | 08:53 | S 7 | 16.09 | Fair | CLR | 12.8 | 1.1 | 45% | 75.74 | 1007.2 | |||||||
| 04 | 07:53 | S 7 | 16.09 | Fair | CLR | 11.7 | 0 | 45% | 75.74 | 1006.8 | |||||||
| 04 | 06:53 | S 7 | 16.09 | Fair | CLR | 10 | -0.6 | 48% | 9 | 75.69 | 1006.1 | ||||||
| 04 | 05:53 | S 7 | 16.09 | Fair | CLR | 11.1 | -1.1 | 15.6 | 10 | 43% | 75.69 | 1005.9 | |||||
| 04 | 04:53 | SE 6 | 16.09 | Fair | CLR | 11.1 | -1.1 | 43% | 75.69 | 1006.0 | |||||||
| 04 | 03:53 | S 9 | 16.09 | Fair | CLR | 11.1 | -1.1 | 43% | 75.67 | 1005.7 | |||||||
| 04 | 02:53 | S 9 | 16.09 | Fair | CLR | 12.8 | -1.1 | 38% | 75.69 | 1005.6 | |||||||
| 04 | 01:53 | SE 11 | 16.09 | Fair | CLR | 12.8 | 0 | 42% | 75.69 | 1005.9 | |||||||
| 04 | 00:53 | SE 11 | 16.09 | Fair | CLR | 11.7 | -0.6 | 43% | 75.69 | 1006.2 | |||||||
| 03 | 23:53 | NW 7 | 16.09 | Fair | CLR | 15 | -1.1 | 25.6 | 12.2 | 33% | 75.69 | 1006.1 | |||||
| 03 | 22:53 | N 11 | 16.09 | Fair | CLR | 13.9 | -0.6 | 37% | 75.72 | 1006.5 | |||||||
| 03 | 21:53 | NW 7 | 16.09 | Fair | CLR | 17.2 | -1.7 | 28% | 75.69 | 1006.3 | |||||||
| 03 | 20:53 | NW 11 | 16.09 | Fair | CLR | 18.9 | 1.1 | 30% | 75.67 | 1006.2 | |||||||
| 03 | 19:53 | N 11 | 16.09 | Fair | CLR | 22.8 | 0 | 22% | 75.69 | 1006.1 | |||||||
| 03 | 18:53 | N 6 | 16.09 | Fair | CLR | 25 | -7.2 | 11% | 25 | 75.72 | 1006.9 | ||||||
| 03 | 17:53 | NW 19 | 16.09 | Fair | CLR | 25.6 | -6.7 | 26.1 | 20.6 | 11% | 25 | 75.74 | 1007.0 | ||||
| 03 | 16:53 | W 15 | 16.09 | Fair | CLR | 25.6 | -7.8 | 10% | 25 | 75.79 | 1007.6 | ||||||
| 03 | 15:53 | Calm | 16.09 | Fair | CLR | 25 | -6.1 | 12% | 25 | 75.84 | 1008.5 | ||||||
| 03 | 14:53 | N 11 | 16.09 | Fair | CLR | 25.6 | -6.1 | 12% | 25 | 75.95 | 1009.1 | ||||||
| 03 | 13:53 | N 6 | 16.09 | Fair | CLR | 23.9 | -5 | 14% | 24 | 76 | 1010.1 | ||||||
| 03 | 12:53 | Calm | 16.09 | Fair | CLR | 22.2 | -5 | 16% | 76.07 | 1011.1 | |||||||
| 03 | 11:53 | E 6 | 16.09 | Fair | CLR | 21.1 | -3.9 | 21.1 | 5.6 | 18% | 76.12 | 1011.9 | |||||
| 03 | 10:53 | Vrbl 6 | 16.09 | Fair | CLR | 19.4 | -6.1 | 17% | 76.17 | 1013.0 | |||||||
| 03 | 09:53 | Vrbl 6 | 16.09 | Fair | CLR | 17.2 | -4.4 | 23% | 76.2 | 1013.7 | |||||||
| 03 | 08:53 | NE 15 | 16.09 | Fair | CLR | 13.3 | -1.1 | 37% | 76.2 | 1014.2 | |||||||
| 03 | 07:53 | E 13 | 16.09 | Fair | CLR | 11.7 | -3.3 | 35% | 76.2 | 1013.8 | |||||||
| 03 | 06:53 | E 9 | 16.09 | Fair | CLR | 6.1 | -2.8 | 53% | 4 | 76.17 | 1013.8 | ||||||
| 03 | 05:53 | E 15 | 16.09 | Fair | CLR | 8.3 | -5.6 | 15.6 | 6.7 | 37% | 6 | 76.12 | 1012.5 | ||||
| 03 | 04:53 | E 20 | 16.09 | Fair | CLR | 8.9 | -4.4 | 39% | 6 | 76.15 | 1012.5 | ||||||
| 03 | 03:53 | E 17 | 16.09 | Fair | CLR | 7.8 | -3.3 | 46% | 5 | 76.15 | 1012.8 | ||||||
| 03 | 02:53 | Calm | 16.09 | Fair | CLR | 12.2 | -6.1 | 28% | 76.15 | 1012.2 | |||||||
| 03 | 01:53 | SE 9 | 16.09 | Fair | CLR | 13.9 | -7.2 | 23% | 76.15 | 1012.3 | |||||||
| 03 | 00:53 | SE 13 | 16.09 | Fair | CLR | 14.4 | -5 | 26% | 76.15 | 1012.1 | |||||||
| 02 | 23:53 | E 17 | 16.09 | Fair | CLR | 14.4 | -6.7 | 23.9 | 12.2 | 23% | 76.12 | 1011.9 | |||||
| 02 | 22:53 | E 20 | 16.09 | Fair | CLR | 12.8 | -5.6 | 28% | 76.12 | 1012.3 | |||||||
| 02 | 21:53 | NE 20 | 16.09 | Fair | CLR | 12.2 | -3.3 | 34% | 76.1 | 1012.6 | |||||||
| 02 | 20:53 | NE 19 | 16.09 | Fair | CLR | 13.3 | -2.2 | 34% | 76.07 | 1012.6 | |||||||
| 02 | 19:53 | NE 17 | 16.09 | Fair | CLR | 16.7 | 0.6 | 34% | 76.07 | 1012.5 | |||||||
| Date | Time (mdt) | Wind (kph) | Vis. (km) | Weather | Sky Cond. | Air | Dwpt | Max. | Min. | Relative Humidity | Wind Chill (°C) | Heat Index (°C) | altimeter (cm) | sea level (mb) | 1 hr | 3 hr | 6 hr |
| 6 hour | |||||||||||||||||
| Temperature (ºC) | Pressure | Precipitation (cm) | |||||||||||||||